Time;durP1;ratioP1;P1;durP2;ratioP2;P2;SDS_P1;SDS_P2;PMS_P1;PMS_P2;Temp;Humidity;BMP_temperature;BMP_pressure;BME280_temperature;BME280_humidity;BME280_pressure;Samples;Min_cycle;Max_cycle;Signal;HPM_P1;HPM_P2
2021/06/22 00:01:18;;;;;;;1.27;1.05;;;15.30;94.20;;;;;;5025069;28;19932;-74
2021/06/22 00:03:44;;;;;;;;;;;15.30;94.10;;;;;;5016399;28;20500;-74
2021/06/22 00:06:09;;;;;;;3.10;1.00;;;15.30;94.10;;;;;;5023699;28;19935;-74
2021/06/22 00:08:35;;;;;;;;;;;15.20;94.20;;;;;;5022130;28;20029;-74
2021/06/22 00:11:00;;;;;;;1.52;1.20;;;15.20;94.50;;;;;;5027584;28;19952;-74
2021/06/22 00:13:26;;;;;;;5.90;1.30;;;15.20;94.60;;;;;;5029754;28;20056;-74
2021/06/22 00:15:51;;;;;;;1.90;1.35;;;15.10;94.70;;;;;;5027508;28;20048;-74
2021/06/22 00:18:17;;;;;;;;;;;15.10;94.60;;;;;;5022901;28;20559;-74
2021/06/22 00:20:42;;;;;;;1.60;1.27;;;15.10;94.60;;;;;;5028412;28;19917;-74
2021/06/22 00:23:07;;;;;;;;;;;15.10;94.60;;;;;;5025248;28;20026;-72
2021/06/22 00:25:33;;;;;;;2.75;1.30;;;15.10;94.70;;;;;;5028436;28;19909;-71
2021/06/22 00:27:58;;;;;;;4.28;0.90;;;15.10;94.60;;;;;;5026090;28;20108;-72
2021/06/22 00:30:24;;;;;;;;;;;15.00;94.70;;;;;;5024355;28;21520;-71
2021/06/22 00:32:50;;;;;;;1.30;1.17;;;15.10;94.70;;;;;;5027269;28;20060;-71
2021/06/22 00:35:16;;;;;;;;;;;15.10;94.70;;;;;;5022929;28;20041;-71
2021/06/22 00:37:43;;;;;;;2.95;1.15;;;15.10;94.60;;;;;;5026035;28;19916;-71
2021/06/22 00:40:11;;;;;;;2.75;1.50;;;15.00;94.70;;;;;;5026458;28;20020;-71
2021/06/22 00:42:39;;;;;;;1.63;1.40;;;15.00;94.80;;;;;;5021695;28;20868;-72
2021/06/22 00:45:06;;;;;;;7.30;1.50;;;15.00;94.90;;;;;;5027441;28;20041;-71
2021/06/22 00:47:32;;;;;;;4.72;1.63;;;15.00;95.00;;;;;;5027738;28;20026;-71
2021/06/22 00:49:57;;;;;;;;;;;15.00;94.90;;;;;;5023102;28;20079;-71
2021/06/22 00:52:26;;;;;;;2.55;1.00;;;15.00;94.90;;;;;;5029663;28;20284;-71
2021/06/22 00:54:52;;;;;;;2.25;1.20;;;15.00;94.90;;;;;;5024400;28;20037;-71
2021/06/22 00:57:19;;;;;;;2.53;1.48;;;15.00;94.80;;;;;;5028976;28;20022;-71
2021/06/22 00:59:45;;;;;;;5.43;1.20;;;15.00;94.70;;;;;;5025527;28;20022;-71
2021/06/22 01:02:11;;;;;;;2.35;1.10;;;15.10;94.70;;;;;;5021888;28;20159;-71
2021/06/22 01:04:36;;;;;;;1.23;1.13;;;15.00;94.50;;;;;;5021890;28;20142;-72
2021/06/22 01:07:03;;;;;;;;;;;15.00;94.50;;;;;;5024320;28;20056;-71
2021/06/22 01:09:28;;;;;;;1.85;1.52;;;14.90;94.60;;;;;;5033068;28;19918;-71
2021/06/22 01:11:54;;;;;;;;;;;14.80;94.60;;;;;;5029591;28;20033;-71
2021/06/22 01:14:20;;;;;;;1.25;0.90;;;14.80;94.70;;;;;;5026774;28;20283;-72
2021/06/22 01:16:45;;;;;;;;;;;14.90;94.70;;;;;;5024885;28;20029;-71
2021/06/22 01:19:11;;;;;;;1.63;1.25;;;14.80;94.50;;;;;;5024150;28;19996;-71
2021/06/22 01:21:38;;;;;;;1.20;1.10;;;14.80;94.60;;;;;;5022198;28;20121;-71
2021/06/22 01:24:15;;;;;;;2.00;1.33;;;14.80;94.40;;;;;;5025882;28;20029;-71
2021/06/22 01:26:46;;;;;;;1.85;1.27;;;14.80;94.40;;;;;;5023253;28;20033;-71
2021/06/22 01:29:12;;;;;;;2.55;1.80;;;14.80;94.30;;;;;;5025053;28;20108;-71
2021/06/22 01:31:38;;;;;;;;;;;14.70;94.50;;;;;;5026369;28;20120;-71
2021/06/22 01:34:03;;;;;;;1.70;1.08;;;14.70;94.60;;;;;;5025901;28;19913;-71
2021/06/22 01:36:31;;;;;;;6.05;1.40;;;14.70;94.60;;;;;;5019595;28;20033;-71
2021/06/22 01:38:57;;;;;;;2.22;2.03;;;14.70;94.70;;;;;;5023931;28;20307;-71
2021/06/22 01:41:23;;;;;;;3.13;1.70;;;14.70;94.90;;;;;;5025515;28;20025;-71
2021/06/22 01:43:49;;;;;;;;;;;14.60;95.20;;;;;;5029123;28;20091;-71
2021/06/22 01:46:15;;;;;;;3.78;2.25;;;14.50;95.40;;;;;;5022795;28;20427;-71
2021/06/22 01:48:41;;;;;;;4.55;2.72;;;14.40;95.80;;;;;;5021766;28;20128;-71
2021/06/22 01:51:06;;;;;;;;;;;14.30;96.20;;;;;;5028132;28;20136;-71
2021/06/22 01:53:32;;;;;;;4.03;2.63;;;14.20;96.40;;;;;;5022942;28;19917;-71
2021/06/22 01:55:57;;;;;;;;;;;14.20;96.60;;;;;;5027620;28;20483;-72
2021/06/22 01:58:23;;;;;;;6.75;2.95;;;14.10;96.70;;;;;;5025478;28;19909;-71
2021/06/22 02:00:50;;;;;;;;;;;14.10;96.80;;;;;;5025756;28;20040;-71
2021/06/22 02:03:18;;;;;;;4.72;3.55;;;14.10;96.70;;;;;;5026154;28;19916;-71
2021/06/22 02:05:45;;;;;;;3.75;3.35;;;14.00;96.50;;;;;;5025583;28;20044;-71
2021/06/22 02:08:11;;;;;;;5.65;2.33;;;14.00;96.60;;;;;;5019918;28;20132;-71
2021/06/22 02:10:37;;;;;;;4.20;2.78;;;14.00;96.70;;;;;;5026259;28;20036;-72
2021/06/22 02:13:04;;;;;;;6.13;2.75;;;14.00;96.30;;;;;;5026521;28;20486;-71
2021/06/22 02:15:30;;;;;;;3.30;1.92;;;14.00;95.10;;;;;;5026142;28;20215;-71
2021/06/22 02:17:56;;;;;;;4.65;1.98;;;13.90;94.50;;;;;;5024374;28;20029;-72
2021/06/22 02:20:21;;;;;;;;;;;13.90;94.00;;;;;;5026372;28;20022;-72
2021/06/22 02:22:47;;;;;;;6.00;1.85;;;13.80;93.60;;;;;;5026702;28;19934;-72
2021/06/22 02:25:14;;;;;;;6.95;2.03;;;13.80;93.50;;;;;;5023834;28;20563;-72
2021/06/22 02:27:39;;;;;;;6.78;2.45;;;13.70;93.40;;;;;;5024798;28;20021;-72
2021/06/22 02:30:07;;;;;;;;;;;13.80;93.50;;;;;;5024161;28;20026;-72
2021/06/22 02:32:32;;;;;;;;;;;13.80;93.30;;;;;;5026257;28;19971;-72
2021/06/22 02:34:58;;;;;;;10.73;2.38;;;13.80;93.10;;;;;;5023900;28;20339;-72
2021/06/22 02:37:23;;;;;;;;;;;13.80;93.00;;;;;;5023542;28;20030;-72
2021/06/22 02:39:49;;;;;;;4.70;1.75;;;13.80;92.80;;;;;;5020346;28;19984;-72
2021/06/22 02:42:14;;;;;;;;;;;13.80;92.50;;;;;;5016268;28;20484;-71
2021/06/22 02:44:40;;;;;;;6.57;2.00;;;13.80;92.50;;;;;;5024905;28;20291;-71
2021/06/22 02:47:06;;;;;;;;;;;13.70;92.40;;;;;;5021683;28;20026;-72
2021/06/22 02:49:31;;;;;;;6.68;2.72;;;13.70;92.20;;;;;;5026708;28;19955;-71
2021/06/22 02:51:57;;;;;;;;;;;13.70;92.30;;;;;;5029758;28;20060;-71
2021/06/22 02:54:23;;;;;;;3.28;2.22;;;13.70;92.20;;;;;;5026973;28;19943;-71
2021/06/22 02:56:48;;;;;;;;;;;13.70;92.30;;;;;;5031192;28;20029;-72
2021/06/22 02:59:14;;;;;;;12.90;2.95;;;13.70;92.40;;;;;;5023616;28;19932;-72
2021/06/22 03:01:40;;;;;;;;;;;13.70;92.40;;;;;;5028812;28;20092;-72
2021/06/22 03:04:05;;;;;;;3.47;1.60;;;13.60;92.40;;;;;;5031579;28;19909;-71
2021/06/22 03:06:30;;;;;;;;;;;13.60;92.50;;;;;;5029127;28;20025;-72
2021/06/22 03:08:56;;;;;;;6.20;2.40;;;13.70;92.60;;;;;;5027229;28;20320;-72
2021/06/22 03:11:21;;;;;;;;;;;13.70;92.50;;;;;;5031823;28;20014;-72
2021/06/22 03:13:47;;;;;;;8.27;2.17;;;13.70;92.50;;;;;;5029835;28;19912;-72
2021/06/22 03:16:12;;;;;;;;;;;13.70;92.50;;;;;;5029522;28;20045;-71
2021/06/22 03:18:38;;;;;;;5.47;2.40;;;13.70;92.50;;;;;;5024609;28;19913;-72
2021/06/22 03:21:03;;;;;;;;;;;13.70;92.60;;;;;;5031687;28;20029;-72
2021/06/22 03:23:29;;;;;;;5.78;3.28;;;13.70;92.50;;;;;;5029318;28;20417;-71
2021/06/22 03:25:54;;;;;;;;;;;13.80;92.70;;;;;;5031382;28;20025;-72
2021/06/22 03:28:20;;;;;;;8.93;2.90;;;13.80;92.60;;;;;;5030401;28;20296;-71
2021/06/22 03:30:47;;;;;;;;;;;13.80;92.60;;;;;;5028156;28;20033;-71
2021/06/22 03:33:13;;;;;;;14.00;4.82;;;13.80;92.80;;;;;;5029886;28;19909;-72
2021/06/22 03:35:39;;;;;;;7.78;3.90;;;13.80;92.80;;;;;;5017361;28;20037;-71
2021/06/22 03:38:04;;;;;;;;;;;13.70;93.00;;;;;;5021713;28;20030;-72
2021/06/22 03:40:30;;;;;;;6.28;4.18;;;13.70;92.90;;;;;;5029972;28;19928;-72
2021/06/22 03:42:55;;;;;;;;;;;13.80;93.00;;;;;;5031245;28;20052;-72
2021/06/22 03:45:21;;;;;;;7.28;4.63;;;13.80;93.20;;;;;;5022383;28;19921;-71
2021/06/22 03:47:47;;;;;;;;;;;13.80;93.00;;;;;;5029030;28;20036;-72
2021/06/22 03:50:15;;;;;;;10.20;4.55;;;13.80;93.10;;;;;;5027572;28;20395;-72
2021/06/22 03:52:40;;;;;;;7.80;4.18;;;13.80;93.10;;;;;;5026529;28;20090;-72
2021/06/22 03:55:26;;;;;;;;;;;13.80;93.30;;;;;;5028102;28;20029;-71
2021/06/22 03:57:53;;;;;;;6.50;4.25;;;13.70;93.10;;;;;;5029337;28;19913;-72
2021/06/22 04:00:20;;;;;;;6.25;4.25;;;13.70;93.00;;;;;;5021088;28;20018;-72
2021/06/22 04:02:46;;;;;;;8.57;4.32;;;13.80;93.10;;;;;;5027158;28;20156;-71
2021/06/22 04:05:11;;;;;;;;;;;13.80;93.10;;;;;;5025915;28;20124;-71
2021/06/22 04:07:36;;;;;;;12.77;4.65;;;13.80;93.10;;;;;;5016011;28;20043;-71
2021/06/22 04:10:03;;;;;;;;;;;13.90;93.10;;;;;;5023250;28;20029;-71
2021/06/22 04:12:28;;;;;;;10.75;5.30;;;13.90;93.00;;;;;;5025515;28;19917;-72
2021/06/22 04:14:53;;;;;;;;;;;13.90;93.00;;;;;;5029811;28;20037;-71
2021/06/22 04:17:19;;;;;;;9.40;5.15;;;13.90;93.00;;;;;;5030211;28;20475;-71
2021/06/22 04:19:44;;;;;;;;;;;13.90;93.00;;;;;;5024705;28;20496;-72
2021/06/22 04:22:10;;;;;;;13.07;4.75;;;13.90;93.00;;;;;;5024237;28;20031;-71
2021/06/22 04:24:35;;;;;;;;;;;13.90;93.20;;;;;;5019895;28;20029;-71
2021/06/22 04:27:01;;;;;;;10.48;5.07;;;13.90;93.10;;;;;;5029559;28;19912;-72
2021/06/22 04:29:27;;;;;;;;;;;13.90;93.00;;;;;;5023286;28;20037;-71
2021/06/22 04:31:52;;;;;;;9.02;4.50;;;13.90;93.00;;;;;;5024427;28;20356;-71
2021/06/22 04:34:19;;;;;;;;;;;13.90;93.00;;;;;;5013370;28;20555;-71
2021/06/22 04:36:44;;;;;;;12.83;5.70;;;13.90;93.00;;;;;;5026983;28;20287;-72
2021/06/22 04:39:10;;;;;;;;;;;13.90;93.10;;;;;;5025223;28;20030;-71
2021/06/22 04:41:36;;;;;;;9.45;4.55;;;13.90;93.00;;;;;;5023932;28;19913;-71
2021/06/22 04:44:01;;;;;;;;;;;13.90;93.00;;;;;;5024098;28;20032;-72
2021/06/22 04:46:27;;;;;;;7.97;5.32;;;13.90;93.00;;;;;;5020469;28;19924;-71
2021/06/22 04:48:52;;;;;;;;;;;13.90;93.10;;;;;;5023170;28;20448;-72
2021/06/22 04:51:18;;;;;;;7.53;4.22;;;14.00;92.90;;;;;;5023433;28;19943;-72
2021/06/22 04:53:43;;;;;;;;;;;14.00;92.80;;;;;;5023904;28;20037;-72
2021/06/22 04:56:09;;;;;;;7.47;4.32;;;14.00;92.90;;;;;;5024001;28;19960;-72
2021/06/22 04:58:34;;;;;;;;;;;14.00;93.00;;;;;;5025543;28;20534;-72
2021/06/22 05:01:04;;;;;;;13.10;4.93;;;14.00;92.90;;;;;;5026039;28;19952;-71
2021/06/22 05:03:31;;;;;;;9.02;3.35;;;14.10;92.90;;;;;;5022754;28;20025;-71
2021/06/22 05:05:57;;;;;;;14.23;3.53;;;14.20;92.90;;;;;;5025680;28;20029;-72
2021/06/22 05:08:23;;;;;;;;;;;14.30;92.60;;;;;;5026419;28;20041;-72
2021/06/22 05:10:49;;;;;;;10.43;4.47;;;14.40;92.30;;;;;;5024784;28;20012;-72
2021/06/22 05:13:14;;;;;;;;;;;14.40;92.30;;;;;;5023933;28;20105;-72
2021/06/22 05:15:40;;;;;;;5.97;4.82;;;14.40;92.30;;;;;;5024678;28;19920;-72
2021/06/22 05:18:05;;;;;;;;;;;14.50;92.20;;;;;;5023803;28;20034;-72
2021/06/22 05:20:31;;;;;;;11.13;4.18;;;14.50;92.30;;;;;;5021979;28;20399;-71
2021/06/22 05:22:56;;;;;;;;;;;14.50;92.00;;;;;;5027345;28;20219;-72
2021/06/22 05:25:22;;;;;;;13.82;4.45;;;14.50;91.80;;;;;;5027966;28;19916;-72
2021/06/22 05:27:47;;;;;;;;;;;14.50;91.80;;;;;;5025899;28;20040;-72
2021/06/22 05:30:13;;;;;;;14.50;3.60;;;14.50;91.10;;;;;;5027135;28;19951;-72
2021/06/22 05:32:39;;;;;;;6.45;3.53;;;14.60;91.30;;;;;;5028010;28;20124;-72
2021/06/22 05:35:05;;;;;;;;;;;14.70;91.50;;;;;;5025353;28;20120;-72
2021/06/22 05:37:30;;;;;;;6.95;3.25;;;14.90;91.30;;;;;;5027007;28;20356;-72
2021/06/22 05:39:56;;;;;;;6.82;3.28;;;15.00;91.20;;;;;;5026331;28;20083;-72
2021/06/22 05:42:21;;;;;;;6.57;3.33;;;15.10;90.70;;;;;;5029181;28;20031;-72
2021/06/22 05:44:47;;;;;;;;;;;15.20;90.30;;;;;;5028597;28;20091;-72
2021/06/22 05:47:12;;;;;;;12.02;3.13;;;15.20;90.10;;;;;;5029334;28;20314;-72
2021/06/22 05:49:38;;;;;;;;;;;15.40;90.10;;;;;;5027713;28;20033;-72
2021/06/22 05:52:04;;;;;;;6.78;3.60;;;15.50;90.10;;;;;;5026912;28;19913;-72
2021/06/22 05:54:29;;;;;;;10.23;4.03;;;15.70;89.40;;;;;;5026971;28;20480;-72
2021/06/22 05:56:55;;;;;;;;;;;15.90;89.10;;;;;;5029743;28;20065;-72
2021/06/22 05:59:20;;;;;;;7.00;3.20;;;16.10;87.80;;;;;;5025809;28;20364;-72
2021/06/22 06:01:46;;;;;;;;;;;16.20;87.30;;;;;;5023634;28;20041;-72
2021/06/22 06:04:11;;;;;;;14.65;2.85;;;16.20;86.50;;;;;;5026284;28;19974;-72
2021/06/22 06:06:37;;;;;;;;;;;16.20;86.40;;;;;;5023230;28;20030;-72
2021/06/22 06:09:02;;;;;;;10.32;2.53;;;16.10;85.50;;;;;;5026609;28;19909;-72
2021/06/22 06:11:28;;;;;;;;;;;16.10;85.60;;;;;;5028298;28;20037;-72
2021/06/22 06:13:53;;;;;;;6.10;2.53;;;16.10;86.10;;;;;;5028795;28;20396;-72
2021/06/22 06:16:20;;;;;;;14.50;3.42;;;16.10;85.70;;;;;;5022185;28;20665;-73
2021/06/22 06:18:46;;;;;;;8.23;3.25;;;16.10;85.30;;;;;;5023596;28;20049;-72
2021/06/22 06:21:11;;;;;;;;;;;16.00;86.00;;;;;;5026923;28;20033;-72
2021/06/22 06:23:42;;;;;;;7.25;2.03;;;15.90;86.50;;;;;;5049927;22;19925;-71
2021/06/22 06:26:09;;;;;;;8.98;3.55;;;15.80;86.70;;;;;;5031177;28;20018;-72
2021/06/22 06:28:42;;;;;;;5.35;2.75;;;15.80;86.50;;;;;;5028796;28;20065;-72
2021/06/22 06:31:07;;;;;;;6.43;3.28;;;15.70;86.80;;;;;;5031489;28;20057;-75
2021/06/22 06:33:33;;;;;;;9.27;3.45;;;15.60;87.60;;;;;;5029382;28;20057;-72
2021/06/22 06:35:58;;;;;;;;;;;15.60;87.70;;;;;;5026931;28;20065;-74
2021/06/22 06:38:24;;;;;;;7.90;3.03;;;15.70;87.90;;;;;;5026897;28;19913;-74
2021/06/22 06:40:49;;;;;;;8.30;3.13;;;15.70;88.00;;;;;;5031070;28;20021;-73
2021/06/22 06:43:15;;;;;;;9.52;3.60;;;15.80;87.30;;;;;;5026833;28;20034;-74
2021/06/22 06:45:40;;;;;;;10.25;3.40;;;15.90;87.20;;;;;;5030389;28;20056;-74
2021/06/22 06:48:07;;;;;;;5.03;3.35;;;16.00;86.20;;;;;;5027590;28;20030;-74
2021/06/22 06:50:32;;;;;;;7.75;3.22;;;16.20;86.00;;;;;;5026073;28;20412;-74
2021/06/22 06:52:58;;;;;;;13.27;3.17;;;16.30;85.70;;;;;;5029141;28;20032;-74
2021/06/22 06:55:32;;;;;;;;;;;16.50;84.80;;;;;;5027703;28;20021;-74
2021/06/22 06:57:59;;;;;;;11.88;3.33;;;16.60;85.20;;;;;;5026623;28;19909;-74
2021/06/22 07:00:26;;;;;;;7.88;3.25;;;17.10;84.70;;;;;;5028897;28;20032;-74
2021/06/22 07:02:51;;;;;;;6.28;2.63;;;17.40;81.70;;;;;;5031044;28;20029;-73
2021/06/22 07:05:18;;;;;;;6.70;2.58;;;17.30;81.10;;;;;;5029304;28;20566;-73
2021/06/22 07:07:43;;;;;;;5.78;1.90;;;17.20;80.60;;;;;;5025237;28;20513;-73
2021/06/22 07:10:10;;;;;;;8.85;2.35;;;17.00;80.50;;;;;;5028089;28;20159;-73
2021/06/22 07:12:36;;;;;;;5.30;2.83;;;16.90;80.90;;;;;;5024967;28;20041;-73
2021/06/22 07:15:02;;;;;;;11.70;3.60;;;16.70;81.00;;;;;;5029163;28;20377;-73
2021/06/22 07:17:27;;;;;;;8.82;2.50;;;16.60;81.80;;;;;;5027887;28;20520;-73
2021/06/22 07:19:53;;;;;;;6.45;2.25;;;16.60;81.70;;;;;;5028707;28;20108;-74
2021/06/22 07:22:18;;;;;;;5.45;2.25;;;16.50;82.00;;;;;;5024466;28;20040;-74
2021/06/22 07:24:44;;;;;;;;;;;16.60;82.50;;;;;;5028816;28;20514;-74
2021/06/22 07:27:09;;;;;;;5.70;2.83;;;16.70;82.50;;;;;;5025368;28;20002;-72
2021/06/22 07:29:35;;;;;;;9.40;2.80;;;16.80;82.70;;;;;;5025898;28;20037;-74
2021/06/22 07:32:00;;;;;;;;;;;16.80;82.60;;;;;;5029274;28;20034;-74
2021/06/22 07:34:26;;;;;;;9.20;3.53;;;17.00;82.80;;;;;;5029304;28;19992;-73
2021/06/22 07:36:51;;;;;;;11.68;4.43;;;17.00;82.00;;;;;;5028830;28;20183;-73
2021/06/22 07:39:17;;;;;;;10.88;3.78;;;16.80;82.00;;;;;;5024914;28;20034;-73
2021/06/22 07:41:42;;;;;;;;;;;16.70;82.40;;;;;;5028986;28;20029;-74
2021/06/22 07:44:08;;;;;;;8.00;3.90;;;16.60;83.00;;;;;;5026485;28;19909;-73
2021/06/22 07:46:33;;;;;;;10.93;3.22;;;16.60;83.30;;;;;;5030009;28;20386;-72
2021/06/22 07:48:59;;;;;;;6.93;2.63;;;16.60;83.20;;;;;;5029293;28;20030;-73
2021/06/22 07:51:24;;;;;;;;;;;16.50;83.70;;;;;;5020576;28;20037;-76
2021/06/22 07:53:50;;;;;;;8.38;3.40;;;16.50;83.60;;;;;;5026488;28;19913;-74
2021/06/22 07:56:15;;;;;;;10.70;2.85;;;16.40;83.60;;;;;;5027925;28;20550;-75
2021/06/22 07:58:41;;;;;;;7.07;2.85;;;16.40;83.70;;;;;;5024122;28;20040;-75
2021/06/22 08:01:07;;;;;;;7.20;2.47;;;16.40;83.80;;;;;;5024900;28;20057;-76
2021/06/22 08:03:32;;;;;;;6.82;2.97;;;16.40;82.80;;;;;;5025119;28;20037;-76
2021/06/22 08:05:58;;;;;;;13.95;4.03;;;16.40;83.00;;;;;;5026566;28;20043;-75
2021/06/22 08:08:24;;;;;;;6.82;2.50;;;16.40;82.70;;;;;;5028098;28;20026;-75
2021/06/22 08:10:52;;;;;;;6.75;2.85;;;16.70;82.20;;;;;;5029771;28;20087;-75
2021/06/22 08:13:19;;;;;;;5.97;2.97;;;16.90;81.30;;;;;;5024237;28;20112;-75
2021/06/22 08:15:45;;;;;;;7.72;3.17;;;17.10;81.50;;;;;;5027944;28;20037;-75
2021/06/22 08:18:11;;;;;;;7.78;2.92;;;17.20;79.50;;;;;;5026609;28;20032;-75
2021/06/22 08:20:38;;;;;;;7.78;3.45;;;17.30;79.40;;;;;;5024968;28;20029;-76
2021/06/22 08:23:05;;;;;;;9.20;3.33;;;17.30;80.10;;;;;;5027790;28;20514;-73
2021/06/22 08:25:31;;;;;;;10.52;3.22;;;17.30;80.80;;;;;;5028193;28;20520;-77
2021/06/22 08:27:56;;;;;;;4.22;3.20;;;17.20;80.90;;;;;;5025642;28;20060;-74
2021/06/22 08:30:24;;;;;;;10.65;4.00;;;17.10;80.80;;;;;;5025484;28;20030;-74
2021/06/22 08:32:49;;;;;;;7.55;3.28;;;17.00;81.10;;;;;;5023514;28;20029;-74
2021/06/22 08:35:15;;;;;;;10.05;2.67;;;16.90;81.10;;;;;;5027301;28;20111;-73
2021/06/22 08:37:41;;;;;;;7.70;3.30;;;16.80;81.40;;;;;;5025938;28;20037;-73
2021/06/22 08:40:09;;;;;;;8.13;4.28;;;16.90;81.70;;;;;;5027843;28;20055;-74
2021/06/22 08:42:38;;;;;;;7.55;2.88;;;16.90;81.60;;;;;;5025635;28;20087;-74
2021/06/22 08:45:06;;;;;;;9.50;3.70;;;16.80;81.80;;;;;;5027476;28;20044;-74
2021/06/22 08:47:32;;;;;;;9.88;3.75;;;16.80;81.70;;;;;;5021807;28;20771;-74
2021/06/22 08:49:58;;;;;;;6.18;3.50;;;16.80;81.90;;;;;;5024888;28;20124;-74
2021/06/22 08:52:28;;;;;;;6.07;3.53;;;16.80;81.80;;;;;;5024688;28;20104;-74
2021/06/22 08:54:55;;;;;;;6.20;3.10;;;16.90;81.70;;;;;;5027406;28;20061;-74
2021/06/22 08:57:22;;;;;;;3.85;2.80;;;17.00;81.70;;;;;;5026469;28;20030;-74
2021/06/22 08:59:48;;;;;;;7.38;2.53;;;17.00;80.40;;;;;;5026392;28;20440;-76
2021/06/22 09:02:15;;;;;;;6.53;2.90;;;17.10;80.60;;;;;;5023211;28;20036;-76
2021/06/22 09:04:41;;;;;;;4.68;2.97;;;17.10;79.90;;;;;;5023763;28;20625;-76
2021/06/22 09:07:06;;;;;;;6.75;3.22;;;17.20;80.30;;;;;;5024988;28;20033;-76
2021/06/22 09:09:39;;;;;;;6.25;3.75;;;17.30;80.20;;;;;;5026852;28;20040;-74
2021/06/22 09:12:07;;;;;;;9.70;3.88;;;17.40;80.80;;;;;;5026399;28;20037;-75
2021/06/22 09:14:38;;;;;;;7.10;3.30;;;17.60;79.80;;;;;;5027757;28;20395;-75
2021/06/22 09:17:04;;;;;;;8.27;3.58;;;17.70;79.80;;;;;;5027099;28;20022;-75
2021/06/22 09:19:31;;;;;;;11.95;3.35;;;17.80;79.10;;;;;;5025782;28;20378;-75
2021/06/22 09:22:12;;;;;;;3.75;2.47;;;17.80;79.50;;;;;;5026005;28;20033;-75
2021/06/22 09:24:37;;;;;;;5.95;2.83;;;17.80;78.90;;;;;;5024753;28;20040;-74
2021/06/22 09:27:03;;;;;;;7.35;2.67;;;17.90;78.10;;;;;;5026072;28;20017;-74
2021/06/22 09:29:29;;;;;;;6.57;2.58;;;17.90;77.90;;;;;;5026853;28;20064;-76
2021/06/22 09:31:59;;;;;;;7.93;2.90;;;18.00;77.70;;;;;;5027768;28;20203;-76
2021/06/22 09:34:26;;;;;;;7.00;2.75;;;18.00;77.60;;;;;;5026978;28;20033;-77
2021/06/22 09:36:55;;;;;;;11.68;3.28;;;18.00;76.40;;;;;;5024726;28;20036;-76
2021/06/22 09:39:22;;;;;;;4.80;2.38;;;18.00;75.50;;;;;;5023777;28;20029;-76
2021/06/22 09:41:49;;;;;;;7.53;2.03;;;18.00;75.60;;;;;;5026011;28;20431;-76
2021/06/22 09:44:26;;;;;;;8.27;1.90;;;18.10;75.80;;;;;;5025274;28;20032;-74
2021/06/22 09:46:57;;;;;;;3.72;2.53;;;18.00;76.20;;;;;;5025671;28;20068;-74
2021/06/22 09:49:31;;;;;;;4.80;2.30;;;18.20;75.80;;;;;;5026555;28;20038;-74
2021/06/22 09:52:09;;;;;;;15.88;2.97;;;18.20;75.90;;;;;;5025152;28;20025;-74
2021/06/22 09:54:48;;;;;;;6.00;2.53;;;18.20;75.90;;;;;;5026262;28;20035;-74
2021/06/22 09:57:17;;;;;;;7.85;2.58;;;18.20;75.60;;;;;;5025440;28;20033;-71
2021/06/22 09:59:55;;;;;;;4.05;2.20;;;18.30;75.20;;;;;;5028726;28;20029;-73
2021/06/22 10:02:23;;;;;;;5.78;2.67;;;18.30;75.10;;;;;;5029863;28;20087;-72
2021/06/22 10:04:53;;;;;;;3.72;2.13;;;18.40;75.30;;;;;;5031321;28;20080;-72
2021/06/22 10:07:22;;;;;;;3.22;1.70;;;18.40;75.20;;;;;;5032038;28;20128;-74
2021/06/22 10:09:54;;;;;;;7.93;2.28;;;18.50;75.20;;;;;;5026526;28;20033;-73
2021/06/22 10:12:20;;;;;;;13.13;2.30;;;18.70;74.30;;;;;;5028070;28;20053;-73
2021/06/22 10:14:49;;;;;;;6.72;2.47;;;18.60;73.50;;;;;;5029127;28;20026;-75
2021/06/22 10:17:21;;;;;;;9.82;2.58;;;18.60;74.60;;;;;;5031078;28;20168;-75
2021/06/22 10:19:49;;;;;;;6.03;2.10;;;18.70;74.60;;;;;;5026856;28;20052;-75
2021/06/22 10:22:18;;;;;;;7.00;2.63;;;18.70;74.30;;;;;;5029464;28;20033;-75
2021/06/22 10:24:46;;;;;;;6.97;2.95;;;18.70;74.60;;;;;;5028871;28;20048;-75
2021/06/22 10:27:14;;;;;;;3.83;1.77;;;18.70;75.10;;;;;;5030840;28;20049;-75
2021/06/22 10:29:43;;;;;;;7.25;2.50;;;18.80;74.70;;;;;;5027578;28;20037;-75
2021/06/22 10:32:08;;;;;;;5.00;2.20;;;18.90;74.40;;;;;;5028830;28;20131;-75
2021/06/22 10:34:36;;;;;;;7.35;2.45;;;18.90;74.60;;;;;;5024843;28;20116;-76
2021/06/22 10:37:02;;;;;;;8.05;2.95;;;19.00;75.10;;;;;;5028620;28;20025;-76
2021/06/22 10:39:30;;;;;;;4.55;2.47;;;19.10;74.40;;;;;;5029387;28;20112;-76
2021/06/22 10:41:57;;;;;;;7.63;1.98;;;19.10;73.50;;;;;;5026940;28;20103;-73
2021/06/22 10:44:27;;;;;;;2.38;1.73;;;19.00;72.30;;;;;;5028230;28;20017;-73
2021/06/22 10:47:22;;;;;;;4.43;1.50;;;18.90;70.90;;;;;;5026610;28;20509;-73
2021/06/22 10:50:08;;;;;;;7.40;2.47;;;18.70;71.10;;;;;;5027636;28;20033;-73
2021/06/22 10:52:46;;;;;;;5.55;1.50;;;18.60;71.80;;;;;;5029603;28;20029;-73
2021/06/22 10:55:21;;;;;;;4.28;1.80;;;18.50;73.20;;;;;;5030127;28;20472;-74
2021/06/22 11:00:42;;;;;;;5.45;1.60;;;18.70;72.80;;;;;;5026526;28;20288;-74
2021/06/22 11:03:18;;;;;;;2.35;1.90;;;18.90;71.80;;;;;;5029716;28;20029;-74
2021/06/22 11:05:43;;;;;;;8.52;2.38;;;18.90;71.70;;;;;;5029322;28;20478;-75
2021/06/22 11:08:12;;;;;;;7.60;2.03;;;19.10;72.20;;;;;;5028791;28;20030;-75
2021/06/22 11:10:47;;;;;;;5.70;1.98;;;19.20;72.50;;;;;;5029481;28;20554;-73
2021/06/22 11:13:44;;;;;;;5.22;1.08;;;19.30;72.30;;;;;;5029274;28;20117;-73
2021/06/22 11:16:18;;;;;;;6.93;1.98;;;19.50;69.70;;;;;;5026438;28;20022;-73
2021/06/22 11:18:53;;;;;;;4.88;2.08;;;19.60;70.10;;;;;;5029217;28;20029;-74
2021/06/22 11:21:20;;;;;;;17.42;2.83;;;19.60;70.10;;;;;;5029930;28;20492;-73
2021/06/22 11:24:01;;;;;;;2.88;1.40;;;19.60;69.90;;;;;;5029113;28;20041;-73
2021/06/22 11:26:29;;;;;;;3.70;1.52;;;19.70;70.20;;;;;;5029773;28;20029;-74
2021/06/22 11:29:03;;;;;;;7.07;1.60;;;19.80;70.00;;;;;;5028356;28;20044;-74
2021/06/22 11:31:39;;;;;;;5.68;2.00;;;20.00;69.50;;;;;;5028844;28;20120;-73
2021/06/22 11:34:06;;;;;;;6.60;2.47;;;20.10;68.60;;;;;;5029115;28;20041;-74
2021/06/22 11:36:34;;;;;;;7.35;1.77;;;20.00;69.30;;;;;;5027781;28;20038;-72
2021/06/22 11:39:10;;;;;;;5.15;1.85;;;20.10;68.40;;;;;;5028321;28;20148;-73
2021/06/22 11:41:37;;;;;;;7.88;2.25;;;20.10;69.00;;;;;;5030964;28;20041;-73
2021/06/22 11:44:08;;;;;;;7.20;2.20;;;20.00;69.10;;;;;;5027568;28;20036;-73
2021/06/22 11:46:35;;;;;;;3.85;1.95;;;19.90;68.90;;;;;;5029844;28;20027;-73
2021/06/22 11:49:02;;;;;;;5.50;1.95;;;19.70;68.50;;;;;;5025788;28;20036;-74
2021/06/22 11:51:46;;;;;;;5.25;2.08;;;19.50;69.30;;;;;;5029034;28;20033;-76
2021/06/22 11:54:13;;;;;;;12.68;2.03;;;19.40;68.90;;;;;;5024662;28;20029;-75
2021/06/22 11:56:39;;;;;;;8.80;1.95;;;19.30;69.00;;;;;;5028389;28;20037;-75
2021/06/22 11:59:05;;;;;;;6.63;1.83;;;19.30;69.40;;;;;;5025605;28;20523;-74
2021/06/22 12:01:30;;;;;;;6.35;1.75;;;19.30;69.80;;;;;;5028625;28;20061;-74
2021/06/22 12:03:56;;;;;;;8.80;1.92;;;19.40;69.80;;;;;;5028540;28;20120;-75
2021/06/22 12:06:24;;;;;;;4.65;1.67;;;19.40;69.70;;;;;;5027601;28;20076;-74
2021/06/22 12:08:50;;;;;;;8.98;2.28;;;19.40;69.50;;;;;;5025060;28;20022;-75
2021/06/22 12:11:29;;;;;;;6.93;2.10;;;19.40;69.90;;;;;;5027236;28;20029;-75
2021/06/22 12:13:55;;;;;;;7.43;1.88;;;19.40;69.80;;;;;;5028630;28;20044;-76
2021/06/22 12:16:26;;;;;;;10.25;2.00;;;19.40;69.60;;;;;;5029207;28;20484;-76
2021/06/22 12:18:54;;;;;;;3.70;1.63;;;19.30;70.20;;;;;;5024335;28;20025;-75
2021/06/22 12:21:21;;;;;;;8.75;1.92;;;19.40;69.80;;;;;;5025751;28;20549;-76
2021/06/22 12:23:47;;;;;;;6.93;1.55;;;19.40;70.20;;;;;;5051500;22;20004;-74
2021/06/22 12:26:15;;;;;;;2.78;1.40;;;19.50;69.90;;;;;;5029178;28;20049;-74
2021/06/22 12:28:42;;;;;;;5.05;1.80;;;19.50;69.50;;;;;;5025373;28;20029;-74
2021/06/22 12:31:10;;;;;;;8.25;2.33;;;19.60;69.40;;;;;;5027629;28;20503;-74
2021/06/22 12:33:38;;;;;;;7.47;2.00;;;19.60;69.30;;;;;;5022177;28;20038;-75
2021/06/22 12:36:10;;;;;;;3.17;1.85;;;19.60;69.30;;;;;;5023492;28;20025;-75
2021/06/22 12:38:39;;;;;;;9.07;3.00;;;19.70;69.70;;;;;;5026708;28;20036;-75
2021/06/22 12:41:08;;;;;;;7.50;2.60;;;20.00;69.90;;;;;;5028132;28;20100;-75
2021/06/22 12:43:42;;;;;;;7.35;2.70;;;20.20;67.80;;;;;;5028885;28;20021;-76
2021/06/22 12:46:08;;;;;;;6.90;1.30;;;20.20;68.10;;;;;;5028807;28;20057;-75
2021/06/22 12:48:34;;;;;;;3.05;1.55;;;20.20;67.90;;;;;;5027009;28;20033;-75
2021/06/22 12:51:00;;;;;;;3.75;2.60;;;20.20;67.20;;;;;;5028667;28;20029;-75
2021/06/22 12:53:28;;;;;;;11.20;7.03;;;20.20;67.10;;;;;;5029019;28;20040;-75
2021/06/22 12:56:06;;;;;;;4.65;2.00;;;20.10;66.50;;;;;;5027760;28;20127;-75
2021/06/22 12:58:57;;;;;;;4.90;2.08;;;20.20;66.80;;;;;;5026837;28;20026;-73
2021/06/22 13:01:47;;;;;;;3.85;1.63;;;20.30;67.00;;;;;;5028373;28;20029;-73
2021/06/22 13:04:18;;;;;;;6.15;1.73;;;20.30;66.10;;;;;;5028474;28;20033;-73
2021/06/22 13:06:48;;;;;;;1.92;1.45;;;20.50;67.20;;;;;;5028058;28;20080;-72